Time;durP1;ratioP1;P1;durP2;ratioP2;P2;SDS_P1;SDS_P2;PMS_P1;PMS_P2;Temp;Humidity;BMP_temperature;BMP_pressure;BME280_temperature;BME280_humidity;BME280_pressure;Samples;Min_cycle;Max_cycle;Signal;HPM_P1;HPM_P2
2020/12/19 00:00:36;;;;;;;18.45;11.65;;;4.30;99.90;;;;;;5027377;28;20025;-49
2020/12/19 00:03:02;;;;;;;19.17;11.95;;;4.30;99.90;;;;;;5027307;28;20075;-48
2020/12/19 00:05:28;;;;;;;19.58;10.88;;;4.30;99.90;;;;;;5026291;28;20495;-48
2020/12/19 00:07:53;;;;;;;19.42;10.93;;;4.20;99.90;;;;;;5025236;28;20528;-49
2020/12/19 00:10:19;;;;;;;18.55;10.70;;;4.20;99.90;;;;;;5029367;28;20033;-49
2020/12/19 00:12:47;;;;;;;22.13;12.27;;;4.20;99.90;;;;;;5030744;28;20433;-49
2020/12/19 00:15:16;;;;;;;19.85;11.68;;;4.20;99.90;;;;;;5030338;28;20021;-49
2020/12/19 00:17:43;;;;;;;20.60;11.88;;;4.10;99.90;;;;;;5030968;28;20032;-49
2020/12/19 00:20:09;;;;;;;18.17;10.38;;;4.10;99.90;;;;;;5040349;28;20025;-51
2020/12/19 00:22:35;;;;;;;21.48;11.27;;;4.00;99.90;;;;;;5030533;28;20033;-49
2020/12/19 00:25:00;;;;;;;18.90;11.48;;;4.00;99.90;;;;;;5030319;28;20060;-50
2020/12/19 00:27:26;;;;;;;18.17;11.65;;;3.90;99.90;;;;;;5030686;28;20025;-49
2020/12/19 00:29:52;;;;;;;19.08;10.57;;;3.80;99.90;;;;;;5030255;28;20112;-51
2020/12/19 00:32:18;;;;;;;18.33;9.93;;;3.80;99.90;;;;;;5030870;28;20041;-49
2020/12/19 00:34:44;;;;;;;19.45;9.68;;;3.80;99.90;;;;;;5029845;28;20033;-50
2020/12/19 00:37:09;;;;;;;20.23;11.50;;;3.70;99.90;;;;;;5030178;28;20168;-47
2020/12/19 00:39:35;;;;;;;19.15;11.30;;;3.70;99.90;;;;;;5030613;28;20041;-44
2020/12/19 00:42:00;;;;;;;18.10;11.13;;;3.60;99.90;;;;;;5030436;28;20025;-44
2020/12/19 00:44:26;;;;;;;18.23;11.15;;;3.60;99.90;;;;;;5029609;28;20447;-45
2020/12/19 00:46:52;;;;;;;21.27;12.05;;;3.60;99.90;;;;;;5030236;28;20052;-44
2020/12/19 00:49:18;;;;;;;24.95;13.68;;;3.60;99.90;;;;;;5030177;28;20025;-44
2020/12/19 00:51:44;;;;;;;22.83;12.15;;;3.60;99.90;;;;;;5028541;28;20491;-45
2020/12/19 00:54:09;;;;;;;22.95;12.80;;;3.60;99.90;;;;;;5029780;28;20033;-44
2020/12/19 00:56:35;;;;;;;23.42;13.75;;;3.50;99.90;;;;;;5029598;28;20026;-45
2020/12/19 00:59:00;;;;;;;23.55;13.48;;;3.50;99.90;;;;;;5028216;28;20550;-44
2020/12/19 01:01:26;;;;;;;20.00;11.73;;;3.50;99.90;;;;;;5029010;28;20060;-44
2020/12/19 01:03:54;;;;;;;23.05;12.88;;;3.50;99.90;;;;;;5030082;28;20021;-44
2020/12/19 01:06:21;;;;;;;19.50;11.57;;;3.40;99.90;;;;;;5029555;28;20458;-45
2020/12/19 01:08:56;;;;;;;26.17;12.30;;;3.40;99.90;;;;;;5029625;28;20041;-45
2020/12/19 01:11:23;;;;;;;21.23;11.80;;;3.30;99.90;;;;;;5030037;28;20032;-44
2020/12/19 01:13:50;;;;;;;21.55;11.30;;;3.30;99.90;;;;;;5029500;28;20129;-43
2020/12/19 01:16:22;;;;;;;19.63;11.65;;;3.30;99.90;;;;;;5029269;28;20025;-44
2020/12/19 01:18:49;;;;;;;20.23;11.88;;;3.30;99.90;;;;;;5029306;28;20521;-45
2020/12/19 01:21:16;;;;;;;22.75;12.20;;;3.20;99.90;;;;;;5035361;28;20478;-45
2020/12/19 01:23:42;;;;;;;23.25;13.15;;;3.20;99.90;;;;;;5048725;28;20029;-44
2020/12/19 01:26:08;;;;;;;26.80;14.75;;;3.20;99.90;;;;;;5048906;28;20075;-45
2020/12/19 01:28:34;;;;;;;21.88;12.52;;;3.20;99.90;;;;;;5049515;28;20229;-43
2020/12/19 01:31:02;;;;;;;22.42;12.75;;;3.10;99.90;;;;;;5049224;28;20029;-44
2020/12/19 01:33:28;;;;;;;19.88;12.10;;;3.10;99.90;;;;;;5049238;28;20032;-43
2020/12/19 01:35:53;;;;;;;23.40;13.45;;;3.10;99.90;;;;;;5047902;28;20033;-44
2020/12/19 01:38:19;;;;;;;23.58;12.93;;;3.10;99.90;;;;;;5047986;28;20013;-46
2020/12/19 01:40:55;;;;;;;22.65;13.63;;;3.00;99.90;;;;;;5048452;28;20080;-45
2020/12/19 01:43:22;;;;;;;24.08;12.65;;;3.10;99.90;;;;;;5049152;28;20029;-44
2020/12/19 01:45:48;;;;;;;21.45;12.25;;;3.10;99.90;;;;;;5046811;28;20486;-45
2020/12/19 01:48:23;;;;;;;18.17;11.70;;;3.00;99.90;;;;;;5049396;28;20032;-46
2020/12/19 01:50:50;;;;;;;24.88;13.20;;;3.00;99.90;;;;;;5048348;28;20060;-43
2020/12/19 01:53:20;;;;;;;21.63;12.60;;;3.00;99.90;;;;;;5047579;28;20028;-44
2020/12/19 01:55:46;;;;;;;26.87;14.73;;;2.90;99.90;;;;;;5046875;28;20393;-46
2020/12/19 01:58:12;;;;;;;20.45;12.18;;;2.90;99.90;;;;;;5048952;28;20381;-46
2020/12/19 02:00:41;;;;;;;27.13;12.95;;;2.90;99.90;;;;;;5047079;28;20029;-45
2020/12/19 02:03:07;;;;;;;19.65;12.23;;;2.90;99.90;;;;;;5048996;28;20033;-44
2020/12/19 02:05:39;;;;;;;23.88;12.73;;;2.90;99.90;;;;;;5047853;28;20402;-45
2020/12/19 02:08:06;;;;;;;24.45;14.20;;;2.90;99.90;;;;;;5035198;28;20548;-43
2020/12/19 02:10:32;;;;;;;22.90;11.98;;;2.90;99.90;;;;;;5028783;28;20112;-44
2020/12/19 02:12:59;;;;;;;22.25;13.82;;;2.90;99.90;;;;;;5028632;28;20204;-45
2020/12/19 02:15:25;;;;;;;24.58;13.50;;;2.90;99.90;;;;;;5028303;28;20026;-44
2020/12/19 02:17:51;;;;;;;23.88;13.32;;;2.80;99.90;;;;;;5035787;28;20017;-49
2020/12/19 02:20:16;;;;;;;20.95;11.90;;;2.80;99.90;;;;;;5048077;28;20091;-45
2020/12/19 02:22:42;;;;;;;20.65;12.30;;;2.80;99.90;;;;;;5043011;28;20464;-43
2020/12/19 02:25:07;;;;;;;21.33;12.98;;;2.80;99.90;;;;;;5047466;28;20043;-43
2020/12/19 02:27:33;;;;;;;19.23;11.57;;;2.70;99.90;;;;;;5045659;28;20057;-43
2020/12/19 02:29:58;;;;;;;22.20;13.07;;;2.70;99.90;;;;;;5028224;28;20032;-43
2020/12/19 02:32:24;;;;;;;24.05;13.48;;;2.70;99.90;;;;;;5026691;28;20124;-43
2020/12/19 02:34:49;;;;;;;22.85;12.32;;;2.70;99.90;;;;;;5026760;28;20036;-44
2020/12/19 02:37:15;;;;;;;22.35;13.25;;;2.70;99.90;;;;;;5028065;28;20057;-46
2020/12/19 02:39:40;;;;;;;20.42;12.95;;;2.70;99.90;;;;;;5028274;28;20033;-43
2020/12/19 02:42:06;;;;;;;26.33;13.70;;;2.70;99.90;;;;;;5028410;28;20025;-43
2020/12/19 02:44:31;;;;;;;24.17;12.60;;;2.70;99.90;;;;;;5027774;28;20502;-44
2020/12/19 02:46:57;;;;;;;23.20;13.60;;;2.70;99.90;;;;;;5027971;28;20044;-44
2020/12/19 02:49:23;;;;;;;27.70;13.95;;;2.70;99.90;;;;;;5039523;28;20405;-46
2020/12/19 02:51:49;;;;;;;23.92;14.10;;;2.70;99.90;;;;;;5047520;28;20491;-47
2020/12/19 02:54:14;;;;;;;21.00;12.57;;;2.70;99.90;;;;;;5047862;28;20120;-43
2020/12/19 02:56:40;;;;;;;26.17;14.52;;;2.80;99.90;;;;;;5045978;28;20025;-43
2020/12/19 02:59:05;;;;;;;24.95;14.30;;;2.80;99.90;;;;;;5040724;28;20021;-44
2020/12/19 03:01:31;;;;;;;25.70;14.73;;;2.90;99.90;;;;;;5048187;28;20028;-46
2020/12/19 03:03:58;;;;;;;27.30;15.70;;;2.90;99.90;;;;;;5047374;28;20448;-46
2020/12/19 03:06:24;;;;;;;24.65;13.55;;;2.90;99.90;;;;;;5046733;28;20024;-49
2020/12/19 03:08:49;;;;;;;23.25;13.52;;;3.00;99.90;;;;;;5046210;28;20044;-49
2020/12/19 03:11:15;;;;;;;22.65;13.93;;;3.00;99.90;;;;;;5027890;28;20470;-51
2020/12/19 03:13:41;;;;;;;30.05;14.90;;;3.00;99.90;;;;;;5027409;28;20396;-51
2020/12/19 03:16:07;;;;;;;25.35;13.63;;;3.00;99.90;;;;;;5027162;28;20495;-50
2020/12/19 03:18:32;;;;;;;25.25;14.63;;;3.10;99.90;;;;;;5027315;28;20471;-49
2020/12/19 03:20:58;;;;;;;26.08;14.07;;;3.10;99.90;;;;;;5041145;28;20060;-49
2020/12/19 03:23:23;;;;;;;28.08;14.52;;;3.10;99.90;;;;;;5041160;28;20053;-50
2020/12/19 03:25:50;;;;;;;27.50;14.70;;;3.20;99.90;;;;;;5028892;28;20037;-49
2020/12/19 03:28:16;;;;;;;24.52;13.43;;;3.20;99.90;;;;;;5028056;28;20025;-52
2020/12/19 03:30:42;;;;;;;26.10;14.13;;;3.30;99.90;;;;;;5037728;28;20098;-50
2020/12/19 03:33:08;;;;;;;26.70;13.70;;;3.30;99.90;;;;;;5048130;28;20025;-49
2020/12/19 03:35:34;;;;;;;28.25;14.68;;;3.30;99.90;;;;;;5047282;28;20017;-49
2020/12/19 03:38:00;;;;;;;22.48;13.00;;;3.40;99.90;;;;;;5046964;28;20074;-49
2020/12/19 03:40:26;;;;;;;26.48;14.40;;;3.40;99.90;;;;;;5041226;28;20445;-49
2020/12/19 03:42:52;;;;;;;24.15;13.50;;;3.40;99.90;;;;;;5025892;28;20108;-51
2020/12/19 03:45:17;;;;;;;26.77;14.45;;;3.50;99.90;;;;;;5027652;28;20124;-51
2020/12/19 03:47:43;;;;;;;24.95;13.93;;;3.50;99.90;;;;;;5031134;28;20070;-53
2020/12/19 03:50:08;;;;;;;25.00;14.45;;;3.50;99.90;;;;;;5031661;28;20438;-50
2020/12/19 03:52:34;;;;;;;24.02;14.20;;;3.60;99.90;;;;;;5050501;28;20409;-49
2020/12/19 03:55:00;;;;;;;24.95;14.02;;;3.70;99.90;;;;;;5049632;28;20582;-49
2020/12/19 03:57:25;;;;;;;23.85;13.93;;;3.70;99.90;;;;;;5050962;28;20108;-50
2020/12/19 03:59:51;;;;;;;24.15;14.48;;;3.70;99.90;;;;;;5031695;28;20029;-50
2020/12/19 04:02:16;;;;;;;21.75;13.07;;;3.80;99.90;;;;;;5046237;28;20052;-50
2020/12/19 04:04:42;;;;;;;23.30;12.85;;;3.80;99.90;;;;;;5049162;28;20033;-49
2020/12/19 04:07:08;;;;;;;22.27;13.35;;;3.80;99.90;;;;;;5050825;28;20238;-49
2020/12/19 04:09:34;;;;;;;21.48;12.73;;;3.80;99.90;;;;;;5051202;28;20028;-50
2020/12/19 04:11:59;;;;;;;18.95;11.80;;;3.80;99.90;;;;;;5040549;28;20029;-50
2020/12/19 04:14:37;;;;;;;20.02;12.40;;;3.80;99.90;;;;;;5029905;28;20044;-48
2020/12/19 04:17:04;;;;;;;17.50;11.23;;;3.70;99.90;;;;;;5030493;28;20009;-48
2020/12/19 04:19:29;;;;;;;22.98;13.07;;;3.70;99.90;;;;;;5031121;28;20018;-48
2020/12/19 04:21:55;;;;;;;19.98;13.13;;;3.70;99.90;;;;;;5036448;28;20470;-48
2020/12/19 04:24:20;;;;;;;23.33;13.10;;;3.60;99.90;;;;;;5049376;28;20028;-48
2020/12/19 04:26:46;;;;;;;21.80;13.60;;;3.60;99.90;;;;;;5032470;28;20483;-48
2020/12/19 04:29:11;;;;;;;23.38;13.45;;;3.60;99.90;;;;;;5030938;28;20026;-50
2020/12/19 04:31:37;;;;;;;20.85;11.50;;;3.70;99.90;;;;;;5029264;28;20078;-49
2020/12/19 04:34:02;;;;;;;20.77;12.45;;;3.70;99.90;;;;;;5030239;28;20033;-49
2020/12/19 04:36:27;;;;;;;18.45;12.15;;;3.70;99.90;;;;;;5029675;28;20535;-49
2020/12/19 04:38:53;;;;;;;22.40;13.52;;;3.70;99.90;;;;;;5029841;28;20112;-51
2020/12/19 04:41:20;;;;;;;22.80;13.32;;;3.60;99.90;;;;;;5028811;28;20475;-52
2020/12/19 04:43:46;;;;;;;22.75;12.93;;;3.60;99.90;;;;;;5045885;28;20029;-51
2020/12/19 04:46:13;;;;;;;21.60;12.60;;;3.60;99.90;;;;;;5049977;28;20035;-49
2020/12/19 04:48:39;;;;;;;23.98;13.20;;;3.60;99.90;;;;;;5050271;28;20035;-51
2020/12/19 04:51:05;;;;;;;23.95;14.07;;;3.60;99.90;;;;;;5050032;28;20021;-50
2020/12/19 04:53:31;;;;;;;20.80;12.88;;;3.50;99.90;;;;;;5048194;28;20036;-50
2020/12/19 04:55:59;;;;;;;20.90;13.50;;;3.50;99.90;;;;;;5048525;28;20025;-51
2020/12/19 04:58:24;;;;;;;22.08;12.60;;;3.50;99.90;;;;;;5042166;28;20024;-51
2020/12/19 05:00:50;;;;;;;21.63;12.60;;;3.50;99.90;;;;;;5029674;28;20029;-49
2020/12/19 05:03:15;;;;;;;21.13;12.07;;;3.40;99.90;;;;;;5034457;28;20035;-49
2020/12/19 05:05:43;;;;;;;21.02;11.75;;;3.30;99.90;;;;;;5047883;28;20045;-53
2020/12/19 05:08:10;;;;;;;20.88;13.05;;;3.20;99.90;;;;;;5049525;28;20087;-49
2020/12/19 05:10:36;;;;;;;19.77;12.15;;;3.20;99.90;;;;;;5049760;28;20033;-49
2020/12/19 05:13:02;;;;;;;18.38;11.32;;;3.10;99.90;;;;;;5048568;28;20620;-49
2020/12/19 05:15:28;;;;;;;21.20;12.25;;;3.10;99.90;;;;;;5029739;28;20422;-52
2020/12/19 05:17:59;;;;;;;23.08;13.70;;;3.10;99.90;;;;;;5029516;28;20028;-50
2020/12/19 05:20:27;;;;;;;26.58;14.35;;;3.10;99.90;;;;;;5028351;28;20025;-49
2020/12/19 05:22:53;;;;;;;24.50;14.48;;;3.00;99.90;;;;;;5029202;28;20029;-49
2020/12/19 05:25:21;;;;;;;23.25;13.77;;;3.00;99.90;;;;;;5041625;28;20039;-50
2020/12/19 05:27:48;;;;;;;25.48;13.77;;;3.00;99.90;;;;;;5044091;28;20252;-48
2020/12/19 05:30:14;;;;;;;22.90;13.85;;;3.00;99.90;;;;;;5049824;28;20551;-49
2020/12/19 05:32:49;;;;;;;21.80;12.57;;;3.00;99.90;;;;;;5049190;28;20025;-49
2020/12/19 05:35:15;;;;;;;20.17;12.18;;;2.90;99.90;;;;;;5046609;28;20033;-52
2020/12/19 05:37:42;;;;;;;19.50;11.80;;;2.90;99.90;;;;;;5046715;28;20037;-50
2020/12/19 05:40:12;;;;;;;20.13;11.73;;;2.90;99.90;;;;;;5033464;28;20072;-50
2020/12/19 05:42:41;;;;;;;22.08;13.23;;;2.90;99.90;;;;;;5037402;28;20386;-49
2020/12/19 05:45:16;;;;;;;21.40;12.20;;;3.00;99.90;;;;;;5036495;28;20106;-49
2020/12/19 05:47:42;;;;;;;19.15;12.13;;;2.90;99.90;;;;;;5035419;28;20575;-47
2020/12/19 05:50:08;;;;;;;19.27;11.80;;;2.90;99.90;;;;;;5035600;28;20025;-44
2020/12/19 05:52:37;;;;;;;16.77;10.50;;;2.90;99.90;;;;;;5036605;28;20521;-44
2020/12/19 05:55:06;;;;;;;20.38;11.35;;;2.90;99.90;;;;;;5036682;28;20065;-43
2020/12/19 05:57:34;;;;;;;18.95;11.15;;;2.90;99.90;;;;;;5037535;28;20482;-47
2020/12/19 06:00:00;;;;;;;29.52;17.13;;;2.90;99.90;;;;;;5037880;28;20560;-46
2020/12/19 06:02:29;;;;;;;29.75;16.38;;;3.00;99.90;;;;;;5038309;28;20028;-44
2020/12/19 06:05:00;;;;;;;30.90;17.48;;;3.20;99.90;;;;;;5037833;28;20545;-46
2020/12/19 06:07:28;;;;;;;29.05;15.93;;;3.40;99.90;;;;;;5037734;28;20033;-43
2020/12/19 06:09:54;;;;;;;28.73;15.82;;;3.50;99.90;;;;;;5037357;28;20037;-46
2020/12/19 06:12:45;;;;;;;28.33;16.48;;;3.60;99.90;;;;;;5039315;28;20070;-43
2020/12/19 06:15:34;;;;;;;31.90;16.33;;;3.80;99.90;;;;;;5034966;28;20032;-45
2020/12/19 06:18:06;;;;;;;30.52;15.68;;;3.90;99.90;;;;;;5037189;28;20420;-44
2020/12/19 06:20:33;;;;;;;27.85;14.60;;;4.00;99.90;;;;;;5037156;28;20835;-43
2020/12/19 06:22:59;;;;;;;23.88;14.38;;;4.10;99.90;;;;;;5036670;28;20459;-45
2020/12/19 06:25:41;;;;;;;26.55;14.32;;;4.10;99.90;;;;;;5038092;28;20053;-44
2020/12/19 06:28:08;;;;;;;25.27;14.98;;;4.20;99.90;;;;;;5033865;28;20029;-43
2020/12/19 06:30:34;;;;;;;25.15;14.63;;;4.20;99.90;;;;;;5037045;28;20101;-45
2020/12/19 06:33:10;;;;;;;22.50;13.88;;;4.20;99.90;;;;;;5036758;28;20488;-44
2020/12/19 06:35:35;;;;;;;25.02;14.07;;;4.30;99.90;;;;;;5034958;28;20021;-45
2020/12/19 06:38:03;;;;;;;24.95;14.23;;;4.40;99.90;;;;;;5035018;28;20128;-47
2020/12/19 06:40:37;;;;;;;22.50;14.05;;;4.40;99.90;;;;;;5035044;28;20083;-44
2020/12/19 06:43:13;;;;;;;25.58;15.00;;;4.50;99.90;;;;;;5038654;28;20105;-44
2020/12/19 06:45:39;;;;;;;23.52;13.57;;;4.60;99.90;;;;;;5036968;28;20040;-43
2020/12/19 06:48:28;;;;;;;24.35;13.63;;;4.70;99.90;;;;;;5037315;28;20230;-45
2020/12/19 06:51:03;;;;;;;22.52;13.75;;;4.70;99.90;;;;;;5037007;28;20094;-45
2020/12/19 06:53:31;;;;;;;20.35;13.45;;;4.70;99.90;;;;;;5037734;28;20272;-45
2020/12/19 06:55:58;;;;;;;22.60;14.45;;;4.70;99.90;;;;;;5037431;28;20479;-43
2020/12/19 06:58:34;;;;;;;21.13;12.52;;;4.80;99.90;;;;;;5035187;28;20509;-46
2020/12/19 07:01:21;;;;;;;23.55;13.50;;;4.80;99.90;;;;;;5037710;28;20053;-45
2020/12/19 07:03:47;;;;;;;20.88;13.07;;;4.90;99.90;;;;;;5035679;28;20029;-45
2020/12/19 07:06:14;;;;;;;22.42;13.30;;;4.90;99.90;;;;;;5036215;28;20021;-45
2020/12/19 07:08:41;;;;;;;21.77;13.10;;;4.90;99.90;;;;;;5037199;28;20407;-43
2020/12/19 07:11:34;;;;;;;25.05;13.45;;;4.90;99.90;;;;;;5035702;28;20021;-44
2020/12/19 07:14:01;;;;;;;23.90;12.95;;;5.00;99.90;;;;;;5037291;28;20079;-43
2020/12/19 07:16:50;;;;;;;18.13;11.75;;;5.10;99.90;;;;;;5034916;28;20019;-44
2020/12/19 07:19:27;;;;;;;21.88;12.45;;;5.10;99.90;;;;;;5038278;28;20026;-43
2020/12/19 07:21:54;;;;;;;20.13;11.27;;;5.20;99.90;;;;;;5035625;28;20022;-43
2020/12/19 07:24:21;;;;;;;20.38;13.25;;;5.20;99.90;;;;;;5033913;28;20033;-44
2020/12/19 07:26:47;;;;;;;24.00;13.95;;;5.20;99.90;;;;;;5035400;28;20041;-47
2020/12/19 07:29:14;;;;;;;21.85;14.73;;;5.20;99.90;;;;;;5044653;28;20214;-44
2020/12/19 07:31:47;;;;;;;19.73;13.18;;;5.20;99.90;;;;;;5044155;28;20017;-43
2020/12/19 07:34:14;;;;;;;21.90;12.50;;;5.20;99.90;;;;;;5043981;28;20025;-44
2020/12/19 07:36:42;;;;;;;21.65;13.43;;;5.10;99.90;;;;;;5041465;28;20018;-43
2020/12/19 07:39:08;;;;;;;22.17;13.02;;;5.20;99.90;;;;;;5043143;28;20028;-45
2020/12/19 07:41:35;;;;;;;21.00;13.65;;;5.20;99.90;;;;;;5044355;28;20013;-44
2020/12/19 07:44:13;;;;;;;21.92;13.43;;;5.20;99.90;;;;;;5042590;28;20901;-43
2020/12/19 07:46:51;;;;;;;19.42;11.70;;;5.20;99.90;;;;;;5041535;28;20018;-43
2020/12/19 07:49:27;;;;;;;22.52;13.80;;;5.20;99.90;;;;;;5041532;28;20045;-44
2020/12/19 07:52:10;;;;;;;22.10;13.38;;;5.20;99.90;;;;;;5041890;28;20021;-46
2020/12/19 07:54:36;;;;;;;25.00;13.18;;;5.20;99.90;;;;;;5043224;28;20024;-43
2020/12/19 07:57:03;;;;;;;20.33;13.38;;;5.20;99.90;;;;;;5041509;28;20364;-43
2020/12/19 07:59:29;;;;;;;24.52;12.95;;;5.30;99.90;;;;;;5041797;28;20032;-42
2020/12/19 08:01:55;;;;;;;23.35;13.68;;;5.30;99.90;;;;;;5042498;28;20029;-43
2020/12/19 08:04:21;;;;;;;19.48;12.48;;;5.20;99.90;;;;;;5042923;28;20033;-43
2020/12/19 08:06:50;;;;;;;24.48;12.68;;;5.20;99.90;;;;;;5042185;28;20036;-44
2020/12/19 08:09:20;;;;;;;23.88;14.20;;;5.20;99.90;;;;;;5041265;28;20095;-43
2020/12/19 08:11:46;;;;;;;24.55;13.43;;;5.30;99.90;;;;;;5042601;28;20025;-45
2020/12/19 08:14:20;;;;;;;18.10;12.38;;;5.30;99.90;;;;;;5043144;28;20455;-45
2020/12/19 08:16:46;;;;;;;23.42;13.02;;;5.30;99.90;;;;;;5041347;28;20386;-44
2020/12/19 08:19:17;;;;;;;19.60;12.35;;;5.40;99.90;;;;;;5042189;28;20087;-43
2020/12/19 08:21:46;;;;;;;20.23;12.93;;;5.40;99.90;;;;;;5042149;28;20055;-43
2020/12/19 08:24:12;;;;;;;20.33;12.23;;;5.40;99.90;;;;;;5039199;28;20388;-45
2020/12/19 08:26:38;;;;;;;19.50;12.55;;;5.40;99.90;;;;;;5040963;28;20035;-43
2020/12/19 08:29:05;;;;;;;21.15;13.57;;;5.50;99.90;;;;;;5040388;28;20029;-44
2020/12/19 08:31:36;;;;;;;21.90;12.95;;;5.60;99.90;;;;;;5039199;28;20025;-43
2020/12/19 08:34:10;;;;;;;23.10;13.05;;;5.50;99.90;;;;;;5038529;28;20022;-45
2020/12/19 08:36:36;;;;;;;20.05;12.50;;;5.60;99.90;;;;;;5038075;28;20037;-44
2020/12/19 08:39:18;;;;;;;22.52;13.95;;;5.60;99.90;;;;;;5035331;28;20386;-43
2020/12/19 08:41:44;;;;;;;17.90;11.68;;;5.70;99.90;;;;;;5035039;28;20147;-43
2020/12/19 08:44:24;;;;;;;21.63;12.60;;;5.70;99.90;;;;;;5035979;28;20028;-43
2020/12/19 08:47:05;;;;;;;18.67;12.23;;;5.70;99.90;;;;;;5034542;28;20033;-44
2020/12/19 08:49:31;;;;;;;;;;;5.70;99.90;;;;;;5035731;28;20025;-45
2020/12/19 08:51:57;;;;;;;19.45;11.45;;;5.70;99.90;;;;;;5038339;28;19983;-44
2020/12/19 08:54:23;;;;;;;18.95;12.35;;;5.80;99.90;;;;;;5039416;28;20475;-45
2020/12/19 08:56:51;;;;;;;20.23;12.57;;;5.80;99.90;;;;;;5038104;28;20036;-45
2020/12/19 08:59:28;;;;;;;19.52;13.13;;;5.80;99.90;;;;;;5033402;28;20335;-45
2020/12/19 09:01:55;;;;;;;18.50;11.60;;;5.90;99.90;;;;;;5039381;28;20022;-47
2020/12/19 09:04:24;;;;;;;21.10;12.02;;;5.90;99.90;;;;;;5038279;28;20060;-43
2020/12/19 09:06:51;;;;;;;19.40;12.88;;;6.00;99.90;;;;;;5038990;28;20029;-44
2020/12/19 09:09:18;;;;;;;16.45;11.50;;;6.10;99.90;;;;;;5036510;28;20123;-44
2020/12/19 09:11:43;;;;;;;19.00;11.82;;;6.20;99.90;;;;;;5037320;28;20029;-44
2020/12/19 09:14:11;;;;;;;24.13;12.38;;;6.20;99.90;;;;;;5038243;28;20164;-44
2020/12/19 09:16:50;;;;;;;16.15;10.43;;;6.30;99.90;;;;;;5039170;28;20025;-44
2020/12/19 09:19:17;;;;;;;16.67;11.30;;;6.30;99.90;;;;;;5039081;28;20095;-43
2020/12/19 09:22:05;;;;;;;15.93;10.18;;;6.40;99.90;;;;;;5038161;28;20029;-44
2020/12/19 09:24:30;;;;;;;18.38;11.13;;;6.40;99.90;;;;;;5040975;28;20025;-45
2020/12/19 09:26:56;;;;;;;17.42;10.63;;;6.50;99.90;;;;;;5037140;28;20021;-44
2020/12/19 09:29:22;;;;;;;14.23;9.20;;;6.60;99.90;;;;;;5037143;28;20475;-45
2020/12/19 09:31:47;;;;;;;17.85;9.70;;;6.60;99.90;;;;;;5043157;28;20029;-50
2020/12/19 09:34:14;;;;;;;15.98;10.45;;;6.70;99.90;;;;;;5039450;28;20474;-44
2020/12/19 09:36:39;;;;;;;13.82;9.10;;;6.80;99.90;;;;;;5033924;28;20029;-46
2020/12/19 09:39:05;;;;;;;15.88;9.15;;;6.90;99.90;;;;;;5027066;28;20167;-44
2020/12/19 09:41:31;;;;;;;14.15;9.60;;;7.00;99.90;;;;;;5027852;28;20025;-43
2020/12/19 09:43:57;;;;;;;13.43;9.32;;;7.00;99.90;;;;;;5027328;28;20036;-45
2020/12/19 09:46:24;;;;;;;15.32;10.07;;;7.10;99.90;;;;;;5027690;28;20029;-47
2020/12/19 09:48:51;;;;;;;13.23;8.98;;;7.30;99.90;;;;;;5029247;28;20036;-45
2020/12/19 09:51:16;;;;;;;14.10;10.00;;;7.30;99.90;;;;;;5029446;28;20026;-45
2020/12/19 09:53:42;;;;;;;13.88;8.73;;;7.40;99.90;;;;;;5029031;28;20017;-45
2020/12/19 09:56:07;;;;;;;12.38;8.77;;;7.50;99.90;;;;;;5040705;28;20032;-45
2020/12/19 09:58:33;;;;;;;12.68;8.40;;;7.50;99.90;;;;;;5039316;28;20108;-44
2020/12/19 10:00:58;;;;;;;13.38;9.07;;;7.50;99.90;;;;;;5047704;28;20422;-45
2020/12/19 10:03:24;;;;;;;14.60;9.32;;;7.60;99.90;;;;;;5048242;28;20009;-45
2020/12/19 10:05:50;;;;;;;12.13;8.73;;;7.60;99.90;;;;;;5039191;28;20391;-45
2020/12/19 10:08:16;;;;;;;14.38;9.13;;;7.70;99.90;;;;;;5038948;28;20040;-43
2020/12/19 10:10:46;;;;;;;14.77;8.70;;;7.70;99.90;;;;;;5048223;28;20496;-43
2020/12/19 10:13:12;;;;;;;11.35;8.15;;;7.70;99.90;;;;;;5047757;28;20029;-44
2020/12/19 10:15:39;;;;;;;14.93;8.75;;;7.70;99.90;;;;;;5045292;28;20021;-45
2020/12/19 10:18:05;;;;;;;11.32;8.10;;;7.70;99.90;;;;;;5030910;28;20116;-45
2020/12/19 10:20:31;;;;;;;14.70;9.60;;;7.70;99.90;;;;;;5028237;28;20121;-43
2020/12/19 10:22:57;;;;;;;13.65;8.85;;;7.80;99.90;;;;;;5027770;28;20025;-44
2020/12/19 10:25:22;;;;;;;13.60;9.10;;;7.90;99.90;;;;;;5037391;28;20051;-44
2020/12/19 10:27:48;;;;;;;14.35;9.20;;;7.90;99.90;;;;;;5027732;28;20041;-43
2020/12/19 10:30:13;;;;;;;11.40;8.20;;;7.90;99.90;;;;;;5028210;28;20120;-44
2020/12/19 10:32:39;;;;;;;13.95;8.50;;;8.00;99.90;;;;;;5034639;28;20036;-44
2020/12/19 10:35:06;;;;;;;13.10;8.40;;;8.20;99.90;;;;;;5042825;28;20318;-44
2020/12/19 10:37:35;;;;;;;15.77;8.52;;;8.40;99.90;;;;;;5035585;28;20033;-44
2020/12/19 10:40:01;;;;;;;13.30;8.05;;;8.70;99.90;;;;;;5028417;28;20022;-44
2020/12/19 10:42:26;;;;;;;9.15;6.90;;;8.90;99.90;;;;;;5028094;28;20110;-44
2020/12/19 10:44:52;;;;;;;11.57;7.25;;;9.40;99.90;;;;;;5027360;28;20124;-45
2020/12/19 10:47:18;;;;;;;13.23;6.65;;;10.40;99.90;;;;;;5036997;28;20025;-43
2020/12/19 10:49:43;;;;;;;9.63;7.10;;;11.40;99.90;;;;;;5048278;28;20028;-45
2020/12/19 10:52:10;;;;;;;7.65;5.70;;;12.60;99.90;;;;;;5041726;28;20049;-44
2020/12/19 10:54:35;;;;;;;7.68;6.07;;;13.60;99.90;;;;;;5030824;28;20029;-44
2020/12/19 10:57:02;;;;;;;6.80;5.47;;;14.50;94.90;;;;;;5027769;28;20037;-43
2020/12/19 10:59:29;;;;;;;8.48;5.70;;;15.40;91.30;;;;;;5028427;28;20296;-42
2020/12/19 11:01:55;;;;;;;6.38;5.70;;;16.20;79.60;;;;;;5028213;28;20459;-43
2020/12/19 11:04:21;;;;;;;6.68;5.63;;;16.70;76.80;;;;;;5027636;28;20167;-43
2020/12/19 11:06:47;;;;;;;6.93;5.78;;;17.10;72.90;;;;;;5033009;28;20108;-44
2020/12/19 11:09:13;;;;;;;8.10;6.18;;;16.90;71.30;;;;;;5046343;28;20406;-43
2020/12/19 11:11:38;;;;;;;7.05;5.50;;;16.90;71.60;;;;;;5041539;28;20028;-42
2020/12/19 11:14:05;;;;;;;7.85;5.57;;;16.90;69.00;;;;;;5037220;28;20044;-44
2020/12/19 11:16:31;;;;;;;9.48;6.00;;;16.40;72.00;;;;;;5035860;28;20025;-44
2020/12/19 11:18:57;;;;;;;6.88;5.47;;;15.50;73.50;;;;;;5041503;28;20642;-43
2020/12/19 11:21:23;;;;;;;8.60;6.32;;;14.80;77.40;;;;;;5047749;28;20029;-45
2020/12/19 11:23:49;;;;;;;6.90;5.75;;;14.10;82.30;;;;;;5047002;28;20114;-45
2020/12/19 11:26:20;;;;;;;8.35;6.22;;;13.40;89.40;;;;;;5047159;28;20036;-43
2020/12/19 11:28:48;;;;;;;11.30;6.40;;;12.80;93.00;;;;;;5046369;28;20457;-43
2020/12/19 11:31:14;;;;;;;8.57;6.43;;;12.40;96.70;;;;;;5038691;28;20156;-42
2020/12/19 11:33:41;;;;;;;11.88;7.20;;;12.10;99.90;;;;;;5037868;28;20029;-44
2020/12/19 11:36:06;;;;;;;8.40;6.22;;;11.80;99.90;;;;;;5038002;28;20033;-45
2020/12/19 11:38:32;;;;;;;8.82;6.63;;;11.50;99.90;;;;;;5037810;28;20068;-44
2020/12/19 11:40:57;;;;;;;9.25;6.35;;;11.20;99.90;;;;;;5044041;28;20070;-44
2020/12/19 11:43:23;;;;;;;10.80;6.07;;;11.10;99.90;;;;;;5046826;28;20345;-44
2020/12/19 11:45:50;;;;;;;8.20;6.15;;;10.90;99.90;;;;;;5038303;28;20075;-44
2020/12/19 11:48:15;;;;;;;9.25;6.38;;;10.80;99.90;;;;;;5027593;28;20028;-44
2020/12/19 11:50:41;;;;;;;9.63;6.60;;;10.70;99.90;;;;;;5041093;28;20429;-43
2020/12/19 11:53:06;;;;;;;10.80;6.22;;;10.80;99.90;;;;;;5046752;28;20035;-44
2020/12/19 11:55:32;;;;;;;8.30;5.70;;;10.70;99.90;;;;;;5046581;28;20029;-43
2020/12/19 11:57:58;;;;;;;7.78;6.00;;;10.70;99.90;;;;;;5038110;28;20437;-43
2020/12/19 12:00:24;;;;;;;10.88;5.88;;;10.70;99.90;;;;;;5044444;28;20112;-43
2020/12/19 12:02:51;;;;;;;6.80;5.43;;;10.70;99.90;;;;;;5028315;28;20586;-44
2020/12/19 12:05:16;;;;;;;7.57;5.70;;;10.70;99.90;;;;;;5035768;28;20060;-44
2020/12/19 12:07:42;;;;;;;9.02;6.97;;;10.80;99.90;;;;;;5039548;28;20060;-44
2020/12/19 12:10:08;;;;;;;9.90;5.70;;;10.80;99.90;;;;;;5034398;28;20036;-43
2020/12/19 12:12:34;;;;;;;9.10;6.22;;;10.70;99.90;;;;;;5039109;28;20035;-43
2020/12/19 12:14:59;;;;;;;6.97;5.30;;;10.70;99.90;;;;;;5040411;28;20025;-43
2020/12/19 12:17:24;;;;;;;9.95;5.88;;;10.70;99.90;;;;;;5041041;28;20029;-43
2020/12/19 12:19:50;;;;;;;7.88;5.05;;;10.60;99.90;;;;;;5039416;28;20028;-44
2020/12/19 12:22:16;;;;;;;7.22;5.30;;;10.60;99.90;;;;;;5040202;28;20082;-43
2020/12/19 12:24:41;;;;;;;8.38;5.75;;;10.60;99.90;;;;;;5037778;28;20119;-45
2020/12/19 12:27:07;;;;;;;6.95;5.15;;;10.70;99.90;;;;;;5040598;28;20029;-43
2020/12/19 12:29:32;;;;;;;10.25;5.75;;;10.70;99.90;;;;;;5037340;28;20028;-44
2020/12/19 12:31:58;;;;;;;6.32;4.18;;;10.80;99.90;;;;;;5041013;28;20066;-43
2020/12/19 12:34:23;;;;;;;5.10;4.55;;;10.90;99.90;;;;;;5045239;28;20041;-43
2020/12/19 12:36:48;;;;;;;6.40;4.68;;;11.00;99.90;;;;;;5035632;28;20394;-43
2020/12/19 12:39:14;;;;;;;5.65;4.60;;;11.00;99.90;;;;;;5037858;28;20044;-43
2020/12/19 12:41:43;;;;;;;9.05;4.78;;;11.20;99.90;;;;;;5041302;28;20390;-43